Time;durP1;ratioP1;P1;durP2;ratioP2;P2;SDS_P1;SDS_P2;PMS_P1;PMS_P2;Temp;Humidity;BMP_temperature;BMP_pressure;BME280_temperature;BME280_humidity;BME280_pressure;Samples;Min_cycle;Max_cycle;Signal;HPM_P1;HPM_P2
2023/04/24 00:00:06;;;;;;;1.27;1.15;;;;;;;;;;5041805;28;20049;-63
2023/04/24 00:02:32;;;;;;;1.23;0.90;;;;;;;;;;5042874;28;20045;-62
2023/04/24 00:05:02;;;;;;;1.20;1.10;;;;;;;;;;5041619;28;20045;-62
2023/04/24 00:07:29;;;;;;;1.05;0.98;;;;;;;;;;5041702;28;20579;-62
2023/04/24 00:09:55;;;;;;;1.17;1.08;;;;;;;;;;5025518;28;20059;-63
2023/04/24 00:12:21;;;;;;;1.40;1.20;;;;;;;;;;5028012;28;20079;-62
2023/04/24 00:14:47;;;;;;;1.40;1.30;;;;;;;;;;5028253;28;20484;-62
2023/04/24 00:17:13;;;;;;;1.95;1.27;;;;;;;;;;5045524;28;20121;-62
2023/04/24 00:19:39;;;;;;;1.25;1.15;;;;;;;;;;5027534;28;20506;-62
2023/04/24 00:22:05;;;;;;;1.02;0.90;;;;;;;;;;5027725;28;20434;-63
2023/04/24 00:24:31;;;;;;;1.00;0.90;;;;;;;;;;5026972;28;20102;-63
2023/04/24 00:26:58;;;;;;;1.30;1.20;;;;;;;;;;5026930;28;20399;-62
2023/04/24 00:29:24;;;;;;;1.88;1.40;;;;;;;;;;5047277;28;20132;-62
2023/04/24 00:31:50;;;;;;;1.55;1.10;;;;;;;;;;5043712;28;20124;-63
2023/04/24 00:34:16;;;;;;;0.60;0.60;;;;;;;;;;5045415;28;20122;-63
2023/04/24 00:36:42;;;;;;;0.85;0.80;;;;;;;;;;5045809;28;20041;-62
2023/04/24 00:39:08;;;;;;;1.10;1.00;;;;;;;;;;5027327;28;20059;-63
2023/04/24 00:41:34;;;;;;;0.52;0.50;;;;;;;;;;5027256;28;20041;-62
2023/04/24 00:44:00;;;;;;;1.10;0.68;;;;;;;;;;5045592;28;20057;-62
2023/04/24 00:46:26;;;;;;;0.63;0.63;;;;;;;;;;5045688;28;20136;-62
2023/04/24 00:48:52;;;;;;;0.50;0.50;;;;;;;;;;5045452;28;20122;-63
2023/04/24 00:51:19;;;;;;;0.80;0.80;;;;;;;;;;5027154;28;20049;-62
2023/04/24 00:53:45;;;;;;;0.65;0.65;;;;;;;;;;5045316;28;20464;-62
2023/04/24 00:56:11;;;;;;;0.50;0.50;;;;;;;;;;5026798;28;20080;-63
2023/04/24 00:58:37;;;;;;;0.65;0.65;;;;;;;;;;5045476;28;20109;-62
2023/04/24 01:01:06;;;;;;;1.02;0.77;;;;;;;;;;5026270;28;20063;-62
2023/04/24 01:03:33;;;;;;;0.90;0.90;;;;;;;;;;5042377;28;20059;-63
2023/04/24 01:05:59;;;;;;;0.80;0.77;;;;;;;;;;5026587;28;20053;-62
2023/04/24 01:08:27;;;;;;;1.00;0.82;;;;;;;;;;5024999;28;20491;-63
2023/04/24 01:10:53;;;;;;;1.13;1.05;;;;;;;;;;5045538;28;20536;-63
2023/04/24 01:13:22;;;;;;;0.80;0.80;;;;;;;;;;5044640;28;20041;-63
2023/04/24 01:15:48;;;;;;;1.05;0.77;;;;;;;;;;5044524;28;20099;-63
2023/04/24 01:18:14;;;;;;;0.70;0.70;;;;;;;;;;5027823;28;20082;-63
2023/04/24 01:20:41;;;;;;;1.85;0.70;;;;;;;;;;5045461;28;20044;-63
2023/04/24 01:23:08;;;;;;;0.93;0.82;;;;;;;;;;5043563;28;20049;-62
2023/04/24 01:25:34;;;;;;;0.80;0.80;;;;;;;;;;5045199;28;20410;-63
2023/04/24 01:28:00;;;;;;;0.43;0.43;;;;;;;;;;5026163;28;20140;-62
2023/04/24 01:30:27;;;;;;;0.70;0.70;;;;;;;;;;5026192;28;20055;-62
2023/04/24 01:32:53;;;;;;;0.20;0.20;;;;;;;;;;5045459;28;20073;-63
2023/04/24 01:35:19;;;;;;;0.50;0.50;;;;;;;;;;5044363;28;20095;-63
2023/04/24 01:37:46;;;;;;;0.40;0.40;;;;;;;;;;5044105;28;20449;-63
2023/04/24 01:40:12;;;;;;;0.50;0.47;;;;;;;;;;5026635;28;20098;-62
2023/04/24 01:42:38;;;;;;;0.38;0.38;;;;;;;;;;5027946;28;20059;-63
2023/04/24 01:45:05;;;;;;;0.57;0.50;;;;;;;;;;5041582;28;20710;-62
2023/04/24 01:47:32;;;;;;;0.50;0.50;;;;;;;;;;5025942;28;20517;-62
2023/04/24 01:49:58;;;;;;;0.30;0.30;;;;;;;;;;5044754;28;20048;-63
2023/04/24 01:52:24;;;;;;;0.60;0.60;;;;;;;;;;5044616;28;20049;-63
2023/04/24 01:54:50;;;;;;;0.57;0.52;;;;;;;;;;5027165;28;20633;-63
2023/04/24 01:57:17;;;;;;;0.47;0.47;;;;;;;;;;5044115;28;20128;-62
2023/04/24 01:59:43;;;;;;;0.43;0.43;;;;;;;;;;5045388;28;20044;-63
2023/04/24 02:02:09;;;;;;;0.50;0.50;;;;;;;;;;5044242;28;20049;-63
2023/04/24 02:04:35;;;;;;;1.00;0.55;;;;;;;;;;5044155;28;20045;-63
2023/04/24 02:07:01;;;;;;;0.40;0.40;;;;;;;;;;5023861;28;20055;-63
2023/04/24 02:09:27;;;;;;;0.47;0.47;;;;;;;;;;5044648;28;20041;-63
2023/04/24 02:11:53;;;;;;;0.40;0.40;;;;;;;;;;5026586;28;20056;-63
2023/04/24 02:14:19;;;;;;;0.60;0.60;;;;;;;;;;5044184;28;20044;-62
2023/04/24 02:16:45;;;;;;;0.50;0.50;;;;;;;;;;5044993;28;20047;-63
2023/04/24 02:19:11;;;;;;;0.38;0.38;;;;;;;;;;5043815;28;20052;-62
2023/04/24 02:21:37;;;;;;;0.40;0.30;;;;;;;;;;5044868;28;20055;-63
2023/04/24 02:24:03;;;;;;;0.40;0.40;;;;;;;;;;5044789;28;20045;-63
2023/04/24 02:26:31;;;;;;;0.40;0.40;;;;;;;;;;5025560;28;20045;-62
2023/04/24 02:28:57;;;;;;;0.55;0.55;;;;;;;;;;5043958;28;20060;-62
2023/04/24 02:31:23;;;;;;;0.40;0.40;;;;;;;;;;5026682;28;20391;-63
2023/04/24 02:33:49;;;;;;;0.40;0.40;;;;;;;;;;5042837;28;20062;-63
2023/04/24 02:36:15;;;;;;;0.50;0.50;;;;;;;;;;5043975;28;20539;-62
2023/04/24 02:38:41;;;;;;;0.75;0.40;;;;;;;;;;5044456;28;20041;-62
2023/04/24 02:41:07;;;;;;;0.57;0.57;;;;;;;;;;5043304;28;20135;-63
2023/04/24 02:43:33;;;;;;;0.35;0.35;;;;;;;;;;5044267;28;20049;-62
2023/04/24 02:46:00;;;;;;;0.57;0.57;;;;;;;;;;5026194;28;20060;-63
2023/04/24 02:48:26;;;;;;;0.73;0.73;;;;;;;;;;5043884;28;20128;-63
2023/04/24 02:50:52;;;;;;;0.73;0.73;;;;;;;;;;5044690;28;20049;-62
2023/04/24 02:53:18;;;;;;;0.68;0.65;;;;;;;;;;5043791;28;20045;-63
2023/04/24 02:55:44;;;;;;;0.70;0.70;;;;;;;;;;5043473;28;20095;-62
2023/04/24 02:58:12;;;;;;;0.55;0.55;;;;;;;;;;5043646;28;20056;-63
2023/04/24 03:00:38;;;;;;;0.85;0.82;;;;;;;;;;5042594;28;20041;-62
2023/04/24 03:03:05;;;;;;;0.80;0.80;;;;;;;;;;5025813;28;20094;-63
2023/04/24 03:05:31;;;;;;;1.27;1.17;;;;;;;;;;5043501;28;20177;-63
2023/04/24 03:07:57;;;;;;;1.05;1.05;;;;;;;;;;5042987;28;20045;-62
2023/04/24 03:10:24;;;;;;;1.10;1.00;;;;;;;;;;5043922;28;20124;-63
2023/04/24 03:12:50;;;;;;;2.00;1.77;;;;;;;;;;5044214;28;20043;-62
2023/04/24 03:15:16;;;;;;;2.13;2.00;;;;;;;;;;5042974;28;20377;-62
2023/04/24 03:17:42;;;;;;;1.13;1.08;;;;;;;;;;5025917;28;20041;-62
2023/04/24 03:20:08;;;;;;;1.40;1.30;;;;;;;;;;5043301;28;20412;-62
2023/04/24 03:22:34;;;;;;;1.90;1.80;;;;;;;;;;5043113;28;20450;-62
2023/04/24 03:25:01;;;;;;;2.45;2.35;;;;;;;;;;5024266;28;20099;-62
2023/04/24 03:27:27;;;;;;;2.00;1.90;;;;;;;;;;5043141;28;20040;-63
2023/04/24 03:29:56;;;;;;;1.67;1.58;;;;;;;;;;5025655;28;20395;-62
2023/04/24 03:32:22;;;;;;;2.42;1.92;;;;;;;;;;5044086;28;20072;-62
2023/04/24 03:34:49;;;;;;;1.63;1.52;;;;;;;;;;5042322;28;20067;-62
2023/04/24 03:37:15;;;;;;;2.08;1.95;;;;;;;;;;5041808;28;20041;-62
2023/04/24 03:39:41;;;;;;;2.08;1.98;;;;;;;;;;5042246;28;20048;-62
2023/04/24 03:42:08;;;;;;;1.90;1.80;;;;;;;;;;5024649;28;20548;-63
2023/04/24 03:44:34;;;;;;;2.42;2.20;;;;;;;;;;5043187;28;20052;-62
2023/04/24 03:47:00;;;;;;;2.83;2.63;;;;;;;;;;5046629;28;20053;-62
2023/04/24 03:49:26;;;;;;;2.00;1.90;;;;;;;;;;5047280;28;20048;-62
2023/04/24 03:51:52;;;;;;;1.70;1.60;;;;;;;;;;5044613;28;20056;-62
2023/04/24 03:54:19;;;;;;;2.47;2.28;;;;;;;;;;5046128;28;20037;-62
2023/04/24 03:56:45;;;;;;;3.03;2.80;;;;;;;;;;5046588;28;20045;-62
2023/04/24 03:59:11;;;;;;;3.28;3.08;;;;;;;;;;5045817;28;20444;-63
2023/04/24 04:01:37;;;;;;;3.72;3.45;;;;;;;;;;5047054;28;20052;-62
2023/04/24 04:04:09;;;;;;;2.70;2.50;;;;;;;;;;5045267;28;20498;-63
2023/04/24 04:06:36;;;;;;;2.58;2.30;;;;;;;;;;5028428;28;20703;-63
2023/04/24 04:09:03;;;;;;;3.15;2.50;;;;;;;;;;5046322;28;20133;-62
2023/04/24 04:11:29;;;;;;;3.03;2.83;;;;;;;;;;5041038;28;20581;-62
2023/04/24 04:13:56;;;;;;;3.47;3.25;;;;;;;;;;5046658;28;20048;-62
2023/04/24 04:16:23;;;;;;;3.35;3.05;;;;;;;;;;5045784;28;20534;-62
2023/04/24 04:18:49;;;;;;;3.03;2.83;;;;;;;;;;5045923;28;20083;-63
2023/04/24 04:21:15;;;;;;;4.78;4.40;;;;;;;;;;5045820;28;21764;-63
2023/04/24 04:23:41;;;;;;;4.18;3.88;;;;;;;;;;5045707;28;20582;-63
2023/04/24 04:26:07;;;;;;;3.72;3.50;;;;;;;;;;5046176;28;20045;-62
2023/04/24 04:28:34;;;;;;;2.55;2.35;;;;;;;;;;5046447;28;20491;-63
2023/04/24 04:31:00;;;;;;;2.20;2.05;;;;;;;;;;5028924;28;20057;-63
2023/04/24 04:33:27;;;;;;;1.58;1.48;;;;;;;;;;5046373;28;20041;-62
2023/04/24 04:35:53;;;;;;;1.20;1.15;;;;;;;;;;5028903;28;20049;-63
2023/04/24 04:38:19;;;;;;;0.60;0.60;;;;;;;;;;5028049;28;20415;-63
2023/04/24 04:40:46;;;;;;;0.80;0.73;;;;;;;;;;5027688;28;20049;-63
2023/04/24 04:43:15;;;;;;;1.25;0.88;;;;;;;;;;5023451;28;20049;-63
2023/04/24 04:45:43;;;;;;;0.47;0.47;;;;;;;;;;5045245;28;20049;-63
2023/04/24 04:48:12;;;;;;;0.45;0.45;;;;;;;;;;5043256;28;20067;-63
2023/04/24 04:50:38;;;;;;;0.75;0.30;;;;;;;;;;5045755;28;20067;-62
2023/04/24 04:53:04;;;;;;;0.40;0.20;;;;;;;;;;5027736;28;20483;-62
2023/04/24 04:55:30;;;;;;;0.50;0.45;;;;;;;;;;5044819;28;20056;-63
2023/04/24 04:57:57;;;;;;;0.50;0.40;;;;;;;;;;5028391;28;20052;-63
2023/04/24 05:00:27;;;;;;;0.30;0.30;;;;;;;;;;5027297;28;20492;-63
2023/04/24 05:02:53;;;;;;;0.35;0.25;;;;;;;;;;5027746;28;20049;-63
2023/04/24 05:05:19;;;;;;;0.30;0.30;;;;;;;;;;5026665;28;20043;-63
2023/04/24 05:07:45;;;;;;;0.40;0.22;;;;;;;;;;5026860;28;20037;-63
2023/04/24 05:10:11;;;;;;;0.20;0.20;;;;;;;;;;5044993;28;20459;-63
2023/04/24 05:12:37;;;;;;;0.20;0.20;;;;;;;;;;5027800;28;20514;-63
2023/04/24 05:15:03;;;;;;;0.30;0.30;;;;;;;;;;5026428;28;20041;-63
2023/04/24 05:17:30;;;;;;;0.75;0.55;;;;;;;;;;5026806;28;20045;-62
2023/04/24 05:19:55;;;;;;;0.40;0.40;;;;;;;;;;5027623;28;20053;-63
2023/04/24 05:22:22;;;;;;;0.40;0.40;;;;;;;;;;5024969;28;20048;-63
2023/04/24 05:24:48;;;;;;;0.90;0.70;;;;;;;;;;5044767;28;20247;-62
2023/04/24 05:27:14;;;;;;;0.80;0.80;;;;;;;;;;5044586;28;20041;-62
2023/04/24 05:29:41;;;;;;;0.70;0.70;;;;;;;;;;5044609;28;20174;-62
2023/04/24 05:32:07;;;;;;;0.52;0.40;;;;;;;;;;5043866;28;20045;-63
2023/04/24 05:34:33;;;;;;;0.38;0.38;;;;;;;;;;5026828;28;20057;-63
2023/04/24 05:36:59;;;;;;;0.32;0.32;;;;;;;;;;5044014;28;20037;-63
2023/04/24 05:39:25;;;;;;;0.90;0.55;;;;;;;;;;5044842;28;20126;-63
2023/04/24 05:41:51;;;;;;;0.65;0.43;;;;;;;;;;5044720;28;20538;-63
2023/04/24 05:44:17;;;;;;;0.45;0.45;;;;;;;;;;5025467;28;20053;-62
2023/04/24 05:46:43;;;;;;;0.60;0.30;;;;;;;;;;5026167;28;20053;-63
2023/04/24 05:49:09;;;;;;;0.52;0.40;;;;;;;;;;5042976;28;20045;-62
2023/04/24 05:51:35;;;;;;;0.68;0.60;;;;;;;;;;5045199;28;20045;-62
2023/04/24 05:54:02;;;;;;;1.13;0.82;;;;;;;;;;5044897;28;20040;-62
2023/04/24 05:56:29;;;;;;;2.72;0.70;;;;;;;;;;5022767;28;20041;-63
2023/04/24 05:58:55;;;;;;;0.68;0.68;;;;;;;;;;5044218;28;20045;-63
2023/04/24 06:01:21;;;;;;;1.10;0.50;;;;;;;;;;5026407;28;20045;-63
2023/04/24 06:03:47;;;;;;;0.98;0.80;;;;;;;;;;5025761;28;20507;-62
2023/04/24 06:06:13;;;;;;;1.25;0.60;;;;;;;;;;5026444;28;20411;-62
2023/04/24 06:08:39;;;;;;;1.95;1.00;;;;;;;;;;5044395;28;20041;-62
2023/04/24 06:11:05;;;;;;;0.70;0.70;;;;;;;;;;5044328;28;20598;-62
2023/04/24 06:13:31;;;;;;;0.93;0.80;;;;;;;;;;5045300;28;20475;-63
2023/04/24 06:15:57;;;;;;;1.00;1.00;;;;;;;;;;5028032;28;20076;-63
2023/04/24 06:18:23;;;;;;;1.30;0.90;;;;;;;;;;5045143;28;20052;-63
2023/04/24 06:20:49;;;;;;;0.88;0.88;;;;;;;;;;5045311;28;20025;-63
2023/04/24 06:23:16;;;;;;;1.35;1.25;;;;;;;;;;5027161;28;20103;-63
2023/04/24 06:25:42;;;;;;;1.25;1.15;;;;;;;;;;5044685;28;20120;-63
2023/04/24 06:28:08;;;;;;;1.23;1.02;;;;;;;;;;5044086;28;20148;-63
2023/04/24 06:30:33;;;;;;;0.85;0.85;;;;;;;;;;5027040;28;20037;-63
2023/04/24 06:33:00;;;;;;;2.28;0.82;;;;;;;;;;5026634;28;20053;-63
2023/04/24 06:35:26;;;;;;;0.95;0.95;;;;;;;;;;5028103;28;20136;-64
2023/04/24 06:37:52;;;;;;;0.93;0.82;;;;;;;;;;5026782;28;20136;-63
2023/04/24 06:40:20;;;;;;;0.82;0.70;;;;;;;;;;5044229;28;20048;-62
2023/04/24 06:42:46;;;;;;;0.75;0.52;;;;;;;;;;5026616;28;20049;-62
2023/04/24 06:45:12;;;;;;;0.40;0.40;;;;;;;;;;5043296;28;20056;-61
2023/04/24 06:47:38;;;;;;;0.73;0.50;;;;;;;;;;5044197;28;20654;-62
2023/04/24 06:50:05;;;;;;;0.75;0.47;;;;;;;;;;5026916;28;20057;-61
2023/04/24 06:52:34;;;;;;;0.38;0.38;;;;;;;;;;5044180;28;20044;-62
2023/04/24 06:55:02;;;;;;;0.45;0.43;;;;;;;;;;5042353;28;20521;-62
2023/04/24 06:57:28;;;;;;;0.43;0.40;;;;;;;;;;5045295;28;20049;-62
2023/04/24 06:59:54;;;;;;;0.50;0.50;;;;;;;;;;5044544;28;20045;-62
2023/04/24 07:02:20;;;;;;;0.50;0.30;;;;;;;;;;5042058;28;20041;-62
2023/04/24 07:04:47;;;;;;;0.50;0.45;;;;;;;;;;5044359;28;20064;-61
2023/04/24 07:07:14;;;;;;;1.20;0.60;;;;;;;;;;5043671;28;20087;-62
2023/04/24 07:09:42;;;;;;;2.33;0.80;;;;;;;;;;5026733;28;20131;-61
2023/04/24 07:12:08;;;;;;;1.95;0.90;;;;;;;;;;5044503;28;20113;-62
2023/04/24 07:14:34;;;;;;;2.15;0.98;;;;;;;;;;5043908;28;20048;-62
2023/04/24 07:17:01;;;;;;;1.48;0.95;;;;;;;;;;5026312;28;20136;-62
2023/04/24 07:19:27;;;;;;;2.45;1.00;;;;;;;;;;5044819;28;20056;-62
2023/04/24 07:21:54;;;;;;;2.83;0.88;;;;;;;;;;5043688;28;20463;-62
2023/04/24 07:24:20;;;;;;;0.38;0.38;;;;;;;;;;5045083;28;20056;-61
2023/04/24 07:26:46;;;;;;;3.80;1.08;;;;;;;;;;5044357;28;20045;-61
2023/04/24 07:29:13;;;;;;;1.75;0.52;;;;;;;;;;5043612;28;20491;-61
2023/04/24 07:31:40;;;;;;;2.05;0.80;;;;;;;;;;5044035;28;20479;-60
2023/04/24 07:34:06;;;;;;;0.60;0.60;;;;;;;;;;5044019;28;20110;-61
2023/04/24 07:36:32;;;;;;;1.08;0.60;;;;;;;;;;5041785;28;20044;-60
2023/04/24 07:38:58;;;;;;;1.00;0.77;;;;;;;;;;5026065;28;20098;-61
2023/04/24 07:41:25;;;;;;;1.67;1.50;;;;;;;;;;5043845;28;20451;-60
2023/04/24 07:43:51;;;;;;;2.17;1.50;;;;;;;;;;5042881;28;20045;-61
2023/04/24 07:46:17;;;;;;;4.05;3.15;;;;;;;;;;5043455;28;20139;-61
2023/04/24 07:48:43;;;;;;;4.80;3.13;;;;;;;;;;5043679;28;20044;-60
2023/04/24 07:51:10;;;;;;;5.20;3.72;;;;;;;;;;5044566;28;20513;-60
2023/04/24 07:53:36;;;;;;;5.28;4.10;;;;;;;;;;5044369;28;20044;-60
2023/04/24 07:56:02;;;;;;;6.22;4.72;;;;;;;;;;5042573;28;20183;-60
2023/04/24 07:58:29;;;;;;;10.25;7.00;;;;;;;;;;5043057;28;20100;-60
2023/04/24 08:00:54;;;;;;;7.47;5.72;;;;;;;;;;5043854;28;20041;-60
2023/04/24 08:03:21;;;;;;;8.60;5.80;;;;;;;;;;5041921;28;20044;-60
2023/04/24 08:05:47;;;;;;;8.93;6.32;;;;;;;;;;5025218;28;20040;-61
2023/04/24 08:08:13;;;;;;;10.52;6.63;;;;;;;;;;5043295;28;20080;-61
2023/04/24 08:10:39;;;;;;;7.63;6.05;;;;;;;;;;5041682;28;20045;-60
2023/04/24 08:13:05;;;;;;;7.63;6.07;;;;;;;;;;5043588;28;20055;-60
2023/04/24 08:15:31;;;;;;;7.38;6.13;;;;;;;;;;5043609;28;20049;-61
2023/04/24 08:17:57;;;;;;;6.22;5.35;;;;;;;;;;5043739;28;20044;-61
2023/04/24 08:20:23;;;;;;;7.78;6.38;;;;;;;;;;5044148;28;20056;-62
2023/04/24 08:22:50;;;;;;;10.45;6.72;;;;;;;;;;5043521;28;20044;-62
2023/04/24 08:25:16;;;;;;;7.95;6.07;;;;;;;;;;5042768;28;20056;-62
2023/04/24 08:27:42;;;;;;;8.55;7.07;;;;;;;;;;5025800;28;20124;-62
2023/04/24 08:30:08;;;;;;;7.15;5.28;;;;;;;;;;5043648;28;20045;-63
2023/04/24 08:32:34;;;;;;;7.40;5.47;;;;;;;;;;5045859;28;20384;-63
2023/04/24 08:35:00;;;;;;;6.38;5.43;;;;;;;;;;5046971;28;20041;-63
2023/04/24 08:37:27;;;;;;;8.25;5.95;;;;;;;;;;5029424;28;20037;-63
2023/04/24 08:39:53;;;;;;;6.30;5.05;;;;;;;;;;5046512;28;20220;-63
2023/04/24 08:42:20;;;;;;;12.68;5.82;;;;;;;;;;5046924;28;20068;-63
2023/04/24 08:44:47;;;;;;;6.28;5.30;;;;;;;;;;5046928;28;20060;-62
2023/04/24 08:47:13;;;;;;;5.93;5.10;;;;;;;;;;5046586;28;20048;-62
2023/04/24 08:49:39;;;;;;;6.70;5.95;;;;;;;;;;5047005;28;20076;-61
2023/04/24 08:52:05;;;;;;;5.38;4.88;;;;;;;;;;5045972;28;20790;-62
2023/04/24 08:54:32;;;;;;;5.78;5.28;;;;;;;;;;5046782;28;20087;-62
2023/04/24 08:57:01;;;;;;;6.13;5.32;;;;;;;;;;5029276;28;20136;-62
2023/04/24 08:59:27;;;;;;;5.20;4.70;;;;;;;;;;5046400;28;20826;-62
2023/04/24 09:01:53;;;;;;;4.78;4.18;;;;;;;;;;5028769;28;20512;-62
2023/04/24 09:04:21;;;;;;;5.50;4.05;;;;;;;;;;5046490;28;20049;-62
2023/04/24 09:06:48;;;;;;;4.15;3.40;;;;;;;;;;5044772;28;20106;-62
2023/04/24 09:09:16;;;;;;;6.53;4.10;;;;;;;;;;5046722;28;20041;-62
2023/04/24 09:11:42;;;;;;;5.60;4.22;;;;;;;;;;5046635;28;20486;-63
2023/04/24 09:14:09;;;;;;;5.22;3.63;;;;;;;;;;5027657;28;20471;-63
2023/04/24 09:16:36;;;;;;;3.47;3.17;;;;;;;;;;5046637;28;20060;-63
2023/04/24 09:19:02;;;;;;;3.78;3.20;;;;;;;;;;5043608;28;20522;-63
2023/04/24 09:21:33;;;;;;;4.57;3.58;;;;;;;;;;5044993;28;20454;-63
2023/04/24 09:24:03;;;;;;;6.70;3.67;;;;;;;;;;5046983;28;20045;-63
2023/04/24 09:26:31;;;;;;;3.70;3.40;;;;;;;;;;5027816;28;20471;-63
2023/04/24 09:28:57;;;;;;;5.38;3.20;;;;;;;;;;5026976;28;20049;-63
2023/04/24 09:31:24;;;;;;;6.32;3.40;;;;;;;;;;5053484;28;20041;-63
2023/04/24 09:33:55;;;;;;;6.80;3.80;;;;;;;;;;5046681;28;20072;-63
2023/04/24 09:36:27;;;;;;;5.10;3.35;;;;;;;;;;5045517;28;20369;-63
2023/04/24 09:38:54;;;;;;;6.60;3.75;;;;;;;;;;5045505;28;20036;-63
2023/04/24 09:41:20;;;;;;;6.95;3.22;;;;;;;;;;5044181;28;20486;-63
2023/04/24 09:43:46;;;;;;;8.75;4.00;;;;;;;;;;5045295;28;20052;-63
2023/04/24 09:46:13;;;;;;;5.63;3.03;;;;;;;;;;5045380;28;20072;-63
2023/04/24 09:48:39;;;;;;;3.42;3.13;;;;;;;;;;5044668;28;20045;-63
2023/04/24 09:51:07;;;;;;;4.72;3.20;;;;;;;;;;5026700;28;20087;-63
2023/04/24 09:53:33;;;;;;;5.38;2.58;;;;;;;;;;5045177;28;20060;-63
2023/04/24 09:56:09;;;;;;;4.40;2.50;;;;;;;;;;5044152;28;20048;-63
2023/04/24 09:58:36;;;;;;;3.03;2.13;;;;;;;;;;5044195;28;20049;-63
2023/04/24 10:01:02;;;;;;;1.90;1.50;;;;;;;;;;5045674;28;20120;-63
2023/04/24 10:03:30;;;;;;;3.33;2.15;;;;;;;;;;5045100;28;20045;-63
2023/04/24 10:05:59;;;;;;;4.32;2.40;;;;;;;;;;5045108;28;20440;-64
2023/04/24 10:08:26;;;;;;;6.32;2.55;;;;;;;;;;5044614;28;20066;-64
2023/04/24 10:10:52;;;;;;;6.88;2.35;;;;;;;;;;5044077;28;20724;-64
2023/04/24 10:13:18;;;;;;;6.78;2.00;;;;;;;;;;5026918;28;20049;-64
2023/04/24 10:15:45;;;;;;;3.88;1.88;;;;;;;;;;5026863;28;20041;-64
2023/04/24 10:18:11;;;;;;;4.07;1.90;;;;;;;;;;5044719;28;20113;-64
2023/04/24 10:20:39;;;;;;;4.60;2.08;;;;;;;;;;5044933;28;20049;-63
2023/04/24 10:23:05;;;;;;;3.22;1.88;;;;;;;;;;5043324;28;20131;-63
2023/04/24 10:25:33;;;;;;;2.53;1.70;;;;;;;;;;5043231;28;20406;-64
2023/04/24 10:28:00;;;;;;;5.13;1.92;;;;;;;;;;5027151;28;20094;-64
2023/04/24 10:30:30;;;;;;;2.83;1.90;;;;;;;;;;5027258;28;20048;-64
2023/04/24 10:32:56;;;;;;;3.13;1.23;;;;;;;;;;5049207;28;20648;-64
2023/04/24 10:35:25;;;;;;;2.55;1.45;;;;;;;;;;5026768;28;20561;-63
2023/04/24 10:38:03;;;;;;;2.53;1.33;;;;;;;;;;5026356;28;20897;-64
2023/04/24 10:40:33;;;;;;;2.03;1.30;;;;;;;;;;5045662;28;20045;-64
2023/04/24 10:43:00;;;;;;;3.53;1.75;;;;;;;;;;5026283;28;20458;-64
2023/04/24 10:45:26;;;;;;;3.33;1.52;;;;;;;;;;5043866;28;20152;-64
2023/04/24 10:48:07;;;;;;;3.42;1.50;;;;;;;;;;5025619;28;20056;-64
2023/04/24 10:50:46;;;;;;;2.47;1.55;;;;;;;;;;5041112;28;20044;-64
2023/04/24 10:53:16;;;;;;;4.88;1.20;;;;;;;;;;5024466;28;20147;-64
2023/04/24 10:55:44;;;;;;;1.90;1.25;;;;;;;;;;5041841;28;20388;-64
2023/04/24 10:58:11;;;;;;;4.38;1.83;;;;;;;;;;5026532;28;20155;-64
2023/04/24 11:00:38;;;;;;;5.13;1.52;;;;;;;;;;5043790;28;20606;-65
2023/04/24 11:03:08;;;;;;;4.18;1.70;;;;;;;;;;5044438;28;20056;-65
2023/04/24 11:05:51;;;;;;;1.73;1.30;;;;;;;;;;5044027;28;20076;-65
2023/04/24 11:08:25;;;;;;;2.38;1.02;;;;;;;;;;5042992;28;20060;-65
2023/04/24 11:10:59;;;;;;;2.22;1.23;;;;;;;;;;5026968;28;20098;-64
2023/04/24 11:13:26;;;;;;;1.27;0.95;;;;;;;;;;5026172;28;20132;-64
2023/04/24 11:16:10;;;;;;;3.60;1.00;;;;;;;;;;5026820;28;20187;-64
2023/04/24 11:18:40;;;;;;;3.55;1.20;;;;;;;;;;5044026;28;20041;-64
2023/04/24 11:21:18;;;;;;;4.32;1.48;;;;;;;;;;5021444;28;20107;-63
2023/04/24 11:23:45;;;;;;;2.15;0.75;;;;;;;;;;5027170;28;20040;-63
2023/04/24 11:26:12;;;;;;;3.90;1.20;;;;;;;;;;5026680;28;20044;-64
2023/04/24 11:28:44;;;;;;;3.72;1.33;;;;;;;;;;5043717;28;20049;-63
2023/04/24 11:31:29;;;;;;;3.90;1.17;;;;;;;;;;5026843;28;20049;-63
2023/04/24 11:33:55;;;;;;;2.33;0.70;;;;;;;;;;5043925;28;20053;-63
2023/04/24 11:36:21;;;;;;;1.85;0.80;;;;;;;;;;5044873;28;20053;-63
2023/04/24 11:38:47;;;;;;;4.63;1.17;;;;;;;;;;5026303;28;20072;-64
2023/04/24 11:41:13;;;;;;;2.20;0.98;;;;;;;;;;5025667;28;20052;-64
2023/04/24 11:43:40;;;;;;;3.17;0.98;;;;;;;;;;5026080;28;20053;-63
2023/04/24 11:46:06;;;;;;;3.85;1.02;;;;;;;;;;5044580;28;20088;-63
2023/04/24 11:48:36;;;;;;;1.55;0.60;;;;;;;;;;5044078;28;20081;-64
2023/04/24 11:51:02;;;;;;;2.45;0.77;;;;;;;;;;5026511;28;20049;-64
2023/04/24 11:53:28;;;;;;;1.30;0.80;;;;;;;;;;5027373;28;20056;-63
2023/04/24 11:55:54;;;;;;;2.97;0.82;;;;;;;;;;5025996;28;20041;-63
2023/04/24 11:58:23;;;;;;;2.67;0.93;;;;;;;;;;5044631;28;20549;-63
2023/04/24 12:00:56;;;;;;;1.65;0.80;;;;;;;;;;5044404;28;20045;-62
2023/04/24 12:03:22;;;;;;;;;;;;;;;;;;5026697;28;20487;-63
2023/04/24 12:05:48;;;;;;;1.58;0.73;;;;;;;;;;5025956;28;19925;-63
2023/04/24 12:08:27;;;;;;;2.38;0.95;;;;;;;;;;5048768;28;20044;-63
2023/04/24 12:10:53;;;;;;;2.75;0.90;;;;;;;;;;5029761;28;20045;-63
2023/04/24 12:13:19;;;;;;;0.43;0.43;;;;;;;;;;5038674;28;20037;-63
2023/04/24 12:15:45;;;;;;;2.00;0.85;;;;;;;;;;5043465;28;20407;-63
2023/04/24 12:18:16;;;;;;;1.45;0.47;;;;;;;;;;5025131;28;20044;-63
2023/04/24 12:20:42;;;;;;;1.33;0.60;;;;;;;;;;5018938;28;20655;-63
2023/04/24 12:23:08;;;;;;;0.50;0.38;;;;;;;;;;5034513;28;20073;-63
2023/04/24 12:25:34;;;;;;;2.22;0.70;;;;;;;;;;5036488;28;20045;-63
2023/04/24 12:28:03;;;;;;;1.08;0.65;;;;;;;;;;5036015;28;20048;-63
2023/04/24 12:30:30;;;;;;;2.40;0.77;;;;;;;;;;5044627;28;20098;-63
2023/04/24 12:32:58;;;;;;;2.15;0.70;;;;;;;;;;5039700;28;20052;-63
2023/04/24 12:35:25;;;;;;;0.80;0.40;;;;;;;;;;5038192;28;20139;-63
2023/04/24 12:37:51;;;;;;;1.42;0.77;;;;;;;;;;5048603;28;20052;-63
2023/04/24 12:40:18;;;;;;;1.55;0.55;;;;;;;;;;5049123;28;20056;-63
2023/04/24 12:42:48;;;;;;;0.70;0.30;;;;;;;;;;5042914;28;20038;-62
2023/04/24 12:45:14;;;;;;;3.15;0.82;;;;;;;;;;5040621;28;20056;-63
2023/04/24 12:47:41;;;;;;;1.58;0.65;;;;;;;;;;5040872;28;20088;-63
2023/04/24 12:50:08;;;;;;;1.92;0.70;;;;;;;;;;5026357;28;20049;-63
2023/04/24 12:52:34;;;;;;;1.70;0.60;;;;;;;;;;5036421;28;20120;-63
2023/04/24 12:55:01;;;;;;;1.60;0.70;;;;;;;;;;5038754;28;20056;-63
2023/04/24 12:57:28;;;;;;;1.35;0.40;;;;;;;;;;5027111;28;20187;-63
2023/04/24 12:59:56;;;;;;;0.75;0.50;;;;;;;;;;5045722;28;20049;-63
2023/04/24 13:02:22;;;;;;;1.10;0.50;;;;;;;;;;5038978;28;20049;-63
2023/04/24 13:04:48;;;;;;;0.75;0.40;;;;;;;;;;5040377;28;20041;-63
2023/04/24 13:07:14;;;;;;;1.02;0.40;;;;;;;;;;5043150;28;20045;-63
2023/04/24 13:09:41;;;;;;;1.38;0.65;;;;;;;;;;5038136;28;20055;-63
2023/04/24 13:12:07;;;;;;;1.10;0.20;;;;;;;;;;5020026;28;20055;-63
2023/04/24 13:14:33;;;;;;;2.35;0.60;;;;;;;;;;5038881;28;20044;-63
2023/04/24 13:17:00;;;;;;;0.73;0.30;;;;;;;;;;5024789;28;20045;-64
2023/04/24 13:19:26;;;;;;;2.03;0.30;;;;;;;;;;5013945;28;20044;-64
2023/04/24 13:21:52;;;;;;;0.52;0.25;;;;;;;;;;5019802;28;20139;-64
2023/04/24 13:24:19;;;;;;;5.03;0.40;;;;;;;;;;5028071;28;20040;-64
2023/04/24 13:26:45;;;;;;;0.52;0.28;;;;;;;;;;5014263;28;20045;-64
2023/04/24 13:29:11;;;;;;;0.88;0.32;;;;;;;;;;5046076;28;20088;-63
2023/04/24 13:31:37;;;;;;;0.57;0.20;;;;;;;;;;5045204;28;20053;-63
2023/04/24 13:34:04;;;;;;;1.05;0.28;;;;;;;;;;5045067;28;20141;-63
2023/04/24 13:36:31;;;;;;;0.28;0.25;;;;;;;;;;5027572;28;20052;-63
2023/04/24 13:38:57;;;;;;;0.52;0.10;;;;;;;;;;5040706;28;20060;-63
2023/04/24 13:41:23;;;;;;;1.27;0.30;;;;;;;;;;5051351;28;20044;-63
2023/04/24 13:43:49;;;;;;;0.75;0.32;;;;;;;;;;5038087;28;20045;-63
2023/04/24 13:46:16;;;;;;;0.30;0.30;;;;;;;;;;5037395;28;20110;-64
2023/04/24 13:48:42;;;;;;;2.03;0.50;;;;;;;;;;5035736;28;20048;-63
2023/04/24 13:51:08;;;;;;;0.47;0.47;;;;;;;;;;5015877;28;20132;-63
2023/04/24 13:53:38;;;;;;;3.95;1.13;;;;;;;;;;5039948;28;20120;-63
2023/04/24 13:56:04;;;;;;;2.83;0.60;;;;;;;;;;5039557;28;20112;-63
2023/04/24 13:58:30;;;;;;;0.75;0.50;;;;;;;;;;5041404;28;20072;-63
2023/04/24 14:00:56;;;;;;;2.38;0.60;;;;;;;;;;5021782;28;20064;-63
2023/04/24 14:03:22;;;;;;;1.48;0.65;;;;;;;;;;5017819;28;20664;-63
2023/04/24 14:05:48;;;;;;;1.30;0.60;;;;;;;;;;5040794;28;20495;-63
2023/04/24 14:08:14;;;;;;;2.28;1.00;;;;;;;;;;5041902;28;20037;-63
2023/04/24 14:10:40;;;;;;;2.30;1.00;;;;;;;;;;5034321;28;20044;-63
2023/04/24 14:13:06;;;;;;;3.72;1.38;;;;;;;;;;5032028;28;20518;-64
2023/04/24 14:15:32;;;;;;;2.40;1.00;;;;;;;;;;5036435;28;20049;-64
2023/04/24 14:17:58;;;;;;;5.07;1.45;;;;;;;;;;5019944;28;20048;-63
2023/04/24 14:20:24;;;;;;;3.13;0.98;;;;;;;;;;5025412;28;20095;-63
2023/04/24 14:22:50;;;;;;;4.22;0.90;;;;;;;;;;5020498;28;20056;-63
2023/04/24 14:25:16;;;;;;;3.88;1.23;;;;;;;;;;5041486;28;20049;-63
2023/04/24 14:27:43;;;;;;;5.80;1.50;;;;;;;;;;5018283;28;20381;-63
2023/04/24 14:30:09;;;;;;;1.90;0.85;;;;;;;;;;5043511;28;20048;-63
2023/04/24 14:32:35;;;;;;;2.60;1.02;;;;;;;;;;5033787;28;20348;-63
2023/04/24 14:35:01;;;;;;;4.40;1.55;;;;;;;;;;5045049;28;20059;-64
2023/04/24 14:37:27;;;;;;;2.00;0.80;;;;;;;;;;5023596;28;20123;-64
2023/04/24 14:39:54;;;;;;;4.40;1.33;;;;;;;;;;5043425;28;20041;-64